WALL/BPN METAR and TAF weather

Enter ICAO airport designator
Station Type Date Time Source
WALL METAR 2020/09/20 00:00 UTC NOAA

WALL 200000Z 34002KT 9999 FEW020 27/27 Q1010


Station Type Date Time Source
WALL Decoded METAR 2020/09/20 00:00 UTC NOAA

Station name not available
Sep 19, 2020 - 08:00 PM EDT / 2020.09.20 0000 UTC
Wind: from the NNW (340 degrees) at 2 MPH (2 KT):0
Visibility: greater than 7 mile(s):0
Sky conditions: mostly clear
Temperature: 80 F (27 C)
Dew Point: 80 F (27 C)
Relative Humidity: 100%
Pressure (altimeter): 29.83 in. Hg (1010 hPa)
ob: WALL 200000Z 34002KT 9999 FEW020 27/27 Q1010
cycle: 0

Station Type Date Time Source
WALL TAF 2020/09/19 12:00 UTC NOAA

TAF WALL 191100Z 1912/2018 02005KT 9000 FEW020
BECMG 1916/1918 FEW018CB SCT018
TEMPO 1919/1922 7000 -RA

Example: see airport list